Opal Express — V7KB8 — position and weather

sailwx.info

Track history (hours):
 
Tides and Currents Weather Stations Pressure Air Temp Water Temp Dewpoint Dewpoint Depression Visibility Wind Speed Wind Dir Waves Ship Positions

Opal Express

Last reported at 2016-Mar-25 19:30 UTC. Time now 2016-Apr-29 15:55 UTC.
Position N 29°20' W 094°42'.
Warning: this ship's position is 34 days out of date.

Length 179 m; draft 7.8 m.

Type: Tanker. MMSI: 538002500.

Date/timePositionNaut miles runAvg speedWind from/ knotsBaromVisibWave heightAir tempDewpointWater temp
2016-Mar-25 19:30N 29°20' W 094°42'9 9.0
2016-Mar-25 18:33N 29°25' W 094°50'1010.1
2016-Mar-25 17:33N 29°34' W 094°55'9 9.0
2016-Mar-25 16:33N 29°42' W 095°00'6 5.6
2016-Mar-25 15:33N 29°46' W 095°05'4 3.9
2016-Mar-25 14:33N 29°45' W 095°10'2 0.1
2016-Mar-24 11:29N 29°45' W 095°12'0 0.0
2016-Mar-24 10:33N 29°45' W 095°12'0 0.0
2016-Mar-24 09:33N 29°45' W 095°12'0 0.0
2016-Mar-24 08:33N 29°45' W 095°12'0 0.0
2016-Mar-24 07:33N 29°45' W 095°12'0 0.0
2016-Mar-24 06:32N 29°45' W 095°12'0 0.0
2016-Mar-24 05:33N 29°45' W 095°12'0 0.0
2016-Mar-24 04:33N 29°45' W 095°12'0 0.0
2016-Mar-24 03:33N 29°45' W 095°12'0 0.0
2016-Mar-24 02:33N 29°45' W 095°12'0 0.0
2016-Mar-24 01:33N 29°45' W 095°12'0 0.0
2016-Mar-24 00:33N 29°45' W 095°12'0 0.0
2016-Mar-23 23:33N 29°45' W 095°12'0 0.0
2016-Mar-23 22:33N 29°45' W 095°12'1 0.7
2016-Mar-23 21:33N 29°45' W 095°11'6 6.2
2016-Mar-23 20:33N 29°45' W 095°04'9 8.8
2016-Mar-23 19:33N 29°38' W 094°58'1211.8
2016-Mar-23 18:34N 29°28' W 094°51'1110.4
2016-Mar-23 17:32N 29°21' W 094°43'10 2.5
2016-Mar-23 13:27N 29°19' W 094°31'0 0.0
2016-Mar-23 12:21N 29°19' W 094°31'0 0.0
2016-Mar-23 10:33N 29°19' W 094°31'0 0.0
2016-Mar-23 09:30N 29°19' W 094°31'0 0.0
2016-Mar-23 05:21N 29°19' W 094°31'0 0.0
2016-Mar-22 07:33N 29°19' W 094°31'  
Track history (hours):
 
Tides and Currents Weather Stations Pressure Air Temp Water Temp Dewpoint Dewpoint Depression Visibility Wind Speed Wind Dir Waves Ship Positions

Opal Express

Last reported at 2016-Mar-25 19:30 UTC. Time now 2016-Apr-29 15:55 UTC.
Position N 29°20' W 094°42'.
Warning: this ship's position is 34 days out of date.

Length 179 m; draft 7.8 m.

Type: Tanker. MMSI: 538002500.

Date/timePositionNaut miles runAvg speedWind from/ knotsBaromVisibWave heightAir tempDewpointWater temp
2016-Mar-25 19:30N 29°20' W 094°42'9 9.0
2016-Mar-25 18:33N 29°25' W 094°50'1010.1
2016-Mar-25 17:33N 29°34' W 094°55'9 9.0
2016-Mar-25 16:33N 29°42' W 095°00'6 5.6
2016-Mar-25 15:33N 29°46' W 095°05'4 3.9
2016-Mar-25 14:33N 29°45' W 095°10'2 0.1
2016-Mar-24 11:29N 29°45' W 095°12'0 0.0
2016-Mar-24 10:33N 29°45' W 095°12'0 0.0
2016-Mar-24 09:33N 29°45' W 095°12'0 0.0
2016-Mar-24 08:33N 29°45' W 095°12'0 0.0
2016-Mar-24 07:33N 29°45' W 095°12'0 0.0
2016-Mar-24 06:32N 29°45' W 095°12'0 0.0
2016-Mar-24 05:33N 29°45' W 095°12'0 0.0
2016-Mar-24 04:33N 29°45' W 095°12'0 0.0
2016-Mar-24 03:33N 29°45' W 095°12'0 0.0
2016-Mar-24 02:33N 29°45' W 095°12'0 0.0
2016-Mar-24 01:33N 29°45' W 095°12'0 0.0
2016-Mar-24 00:33N 29°45' W 095°12'0 0.0
2016-Mar-23 23:33N 29°45' W 095°12'0 0.0
2016-Mar-23 22:33N 29°45' W 095°12'1 0.7
2016-Mar-23 21:33N 29°45' W 095°11'6 6.2
2016-Mar-23 20:33N 29°45' W 095°04'9 8.8
2016-Mar-23 19:33N 29°38' W 094°58'1211.8
2016-Mar-23 18:34N 29°28' W 094°51'1110.4
2016-Mar-23 17:32N 29°21' W 094°43'10 2.5
2016-Mar-23 13:27N 29°19' W 094°31'0 0.0
2016-Mar-23 12:21N 29°19' W 094°31'0 0.0
2016-Mar-23 10:33N 29°19' W 094°31'0 0.0
2016-Mar-23 09:30N 29°19' W 094°31'0 0.0
2016-Mar-23 05:21N 29°19' W 094°31'0 0.0
2016-Mar-22 07:33N 29°19' W 094°31'  

Dump ship's entire track history